TFFR/PTP METAR and TAF weather

Enter ICAO airport designator
Station Type Date Time Source
TFFR METAR 2020/02/29 02:00 UTC NOAA

TFFR 290200Z AUTO 12004KT 9999 SCT027 22/20 Q1018 NOSIG


Station Type Date Time Source
TFFR Decoded METAR 2020/02/29 02:00 UTC NOAA

Le Raizet, Guadeloupe, Guadeloupe (TFFR) 16-16N 061-31W 11M
Feb 28, 2020 - 09:00 PM EST / 2020.02.29 0200 UTC
Wind: from the ESE (120 degrees) at 5 MPH (4 KT):0
Visibility: greater than 7 mile(s):0
Sky conditions: partly cloudy
Temperature: 71 F (22 C)
Dew Point: 68 F (20 C)
Relative Humidity: 88%
Pressure (altimeter): 30.06 in. Hg (1018 hPa)
ob: TFFR 290200Z AUTO 12004KT 9999 SCT027 22/20 Q1018 NOSIG
cycle: 2

Station Type Date Time Source
TFFR TAF 2020/02/28 18:03 UTC NOAA

TAF TFFR 281700Z 2818/2918 12010KT 9999 SCT025 SCT040 PROB30
TEMPO 2909/2918 3000 SHRA SCT015 BKN020TCU

Example: see airport list